createdAt,value
2018-10-17T06:24:44.090Z,26.80
2018-10-17T06:25:44.848Z,13.80
2018-10-17T07:19:32.539Z,13.00
2018-10-17T07:28:20.318Z,13.90
2018-10-17T07:30:56.880Z,11.90
2018-10-17T07:31:55.304Z,14.10
2018-10-17T07:35:42.893Z,15.60
2018-10-17T07:36:34.704Z,15.70
2018-10-17T07:45:46.574Z,14.90
2018-10-17T07:47:06.497Z,15.30
2018-10-17T07:47:45.410Z,15.10
2018-10-17T07:50:57.472Z,14.10
2018-10-17T07:51:37.453Z,14.60
2018-10-17T07:52:36.621Z,14.70
2018-10-17T07:59:17.331Z,13.40
2018-10-17T08:00:17.385Z,15.20
2018-10-17T08:01:18.514Z,15.90
2018-10-17T08:02:19.573Z,14.90
2018-10-17T08:03:24.952Z,14.60
2018-10-17T08:04:17.800Z,15.10
2018-10-17T08:05:18.520Z,14.50
2018-10-17T08:06:18.236Z,14.90
2018-10-17T08:07:19.520Z,14.90
2018-10-17T08:08:16.817Z,14.70
2018-10-17T08:09:19.477Z,15.00
2018-10-17T08:10:39.086Z,14.60
2018-10-17T08:11:16.675Z,13.80
2018-10-17T08:14:28.302Z,12.50
2018-10-17T08:15:03.471Z,13.30
2018-10-17T08:16:04.192Z,13.60
2018-10-17T08:17:03.352Z,13.90
2018-10-17T08:18:05.354Z,13.60
2018-10-17T08:19:06.248Z,14.30
2018-10-17T08:20:04.570Z,15.00
2018-10-17T08:21:03.920Z,13.60
2018-10-17T08:32:27.032Z,11.20
2018-10-17T08:34:48.039Z,14.10
2018-10-17T08:35:51.339Z,14.70
2018-10-17T08:36:46.556Z,15.70
2018-10-17T08:37:51.007Z,14.80
2018-10-17T08:38:47.591Z,14.20
2018-10-17T08:39:47.051Z,14.20
2018-10-17T08:40:48.534Z,15.20
2018-10-17T08:41:47.288Z,15.40
2018-10-17T08:42:46.032Z,14.80
2018-10-17T08:43:47.095Z,15.30
2018-10-17T08:44:45.999Z,14.00
2018-10-17T08:45:47.594Z,14.60
2018-10-17T08:46:45.869Z,14.30
2018-10-17T08:47:45.974Z,15.50
2018-10-17T08:48:46.926Z,15.40
2018-10-17T08:49:48.794Z,15.50
2018-10-17T08:50:46.965Z,14.40
2018-10-17T08:51:47.500Z,14.30
2018-10-17T08:52:46.849Z,14.20
2018-10-17T08:53:45.808Z,14.40
2018-10-17T08:54:47.646Z,13.40
2018-10-17T08:55:45.849Z,14.30
2018-10-17T08:58:09.456Z,11.90
2018-10-17T09:02:13.198Z,11.40
2018-10-17T09:07:50.801Z,10.20
2018-10-17T09:08:51.561Z,12.70
2018-10-17T09:09:52.062Z,13.20
2018-10-17T09:10:51.527Z,13.10
2018-10-17T09:11:50.396Z,13.30
2018-10-17T09:12:51.050Z,12.00
2018-10-17T09:13:50.424Z,12.30
2018-10-17T09:14:50.382Z,12.00
2018-10-17T09:15:50.363Z,11.70
2018-10-17T09:16:50.667Z,12.30
2018-10-17T09:17:54.145Z,11.10
2018-10-17T09:18:58.203Z,12.30
2018-10-17T09:36:52.800Z,7.30
2018-10-17T09:41:17.308Z,9.40
2018-10-17T10:14:20.342Z,7.30
2018-10-17T10:15:20.230Z,9.00
2018-10-17T10:16:18.609Z,9.90
2018-10-17T10:18:21.381Z,9.20
2018-10-17T10:18:29.553Z,8.70
2018-10-17T10:19:32.442Z,8.70
2018-10-17T10:23:54.439Z,8.70
2018-10-17T10:24:53.227Z,8.50
2018-10-17T10:25:53.993Z,8.40
2018-10-17T10:30:39.625Z,8.00
2018-10-17T10:31:38.249Z,8.60
2018-10-17T10:32:37.856Z,8.50
2018-10-17T10:45:09.408Z,8.30
2018-10-17T10:48:45.305Z,7.00
2018-10-17T10:49:20.377Z,7.50
2018-10-17T10:51:41.476Z,7.40
2018-10-17T10:56:21.076Z,7.30
2018-10-17T10:58:10.135Z,7.40
2018-10-17T10:58:15.418Z,7.70
2018-10-17T10:59:26.232Z,8.50
2018-10-17T11:01:34.661Z,6.10
2018-10-17T11:02:35.982Z,7.40
2018-10-17T11:05:18.853Z,6.00
2018-10-17T11:06:17.790Z,7.60
2018-10-17T11:07:17.742Z,6.60
2018-10-17T11:08:16.910Z,6.80
2018-10-17T11:15:30.622Z,7.40
2018-10-17T11:16:01.403Z,7.10
2018-10-17T11:17:01.479Z,7.00
2018-10-17T11:18:02.499Z,7.10
2018-10-17T11:19:02.104Z,6.80
2018-10-17T11:20:03.221Z,6.90
2018-10-17T11:21:05.197Z,7.10
2018-10-17T11:22:05.355Z,6.60
2018-10-17T11:23:02.417Z,7.00
2018-10-17T11:24:03.028Z,6.80
2018-10-17T11:25:02.335Z,6.70
2018-10-17T11:26:01.360Z,6.70
2018-10-17T11:33:51.481Z,6.90
2018-10-17T11:34:51.963Z,6.60
2018-10-17T11:35:51.174Z,6.40
2018-10-17T11:37:12.967Z,6.50
2018-10-17T11:41:29.095Z,5.50
2018-10-17T11:44:16.094Z,5.30
2018-10-17T11:45:17.765Z,6.70
2018-10-17T11:55:25.986Z,6.30
2018-10-17T11:56:25.343Z,6.70
2018-10-17T12:07:49.248Z,6.60
2018-10-17T12:08:47.046Z,7.00
2018-10-17T12:19:35.550Z,7.50
2018-10-17T15:41:19.493Z,12.20
2018-10-17T15:43:47.549Z,11.80
2018-10-17T15:44:09.816Z,13.40
2018-10-17T15:45:09.771Z,12.30
2018-10-17T15:46:10.325Z,12.60
2018-10-17T15:47:09.644Z,12.40
2018-10-17T15:48:09.578Z,12.40
2018-10-17T15:49:09.735Z,13.00
2018-10-17T15:50:09.560Z,12.40
2018-10-17T15:51:09.578Z,12.60
2018-10-17T15:52:10.236Z,13.50
2018-10-17T15:53:09.591Z,14.10
2018-10-17T15:54:10.290Z,13.40
2018-10-17T15:55:09.531Z,13.20
2018-10-17T15:56:09.471Z,14.70
2018-10-17T15:57:09.477Z,13.00
2018-10-17T15:58:31.444Z,14.80
2018-10-17T15:59:09.557Z,13.70
2018-10-17T16:00:09.524Z,13.70
2018-10-17T16:01:09.485Z,12.90
2018-10-17T16:02:09.425Z,13.40
2018-10-17T16:03:09.418Z,13.30
2018-10-17T16:04:09.387Z,14.30
2018-10-17T16:05:09.412Z,14.50
2018-10-17T16:06:09.461Z,14.40
2018-10-17T16:07:09.341Z,14.00
2018-10-17T16:08:09.353Z,14.10
2018-10-17T16:09:09.315Z,13.90
2018-10-17T16:10:09.292Z,14.60
2018-10-17T16:11:09.312Z,16.70
2018-10-17T16:12:09.277Z,14.60
2018-10-17T16:13:09.253Z,15.10
2018-10-17T16:14:09.333Z,14.10
2018-10-17T16:15:09.249Z,13.70
2018-10-17T16:16:09.252Z,14.60
2018-10-17T16:17:09.347Z,13.70
2018-10-17T16:18:09.269Z,14.20
2018-10-17T16:19:09.183Z,15.40
2018-10-17T16:20:09.879Z,14.20
2018-10-17T16:21:09.164Z,12.90
2018-10-17T16:22:09.170Z,13.70
2018-10-17T16:23:09.284Z,13.20
2018-10-17T16:24:09.159Z,15.30
2018-10-17T16:25:09.140Z,17.00
2018-10-17T16:26:09.180Z,15.20
2018-10-17T16:27:09.126Z,18.60
2018-10-17T16:28:09.152Z,18.20
2018-10-17T16:29:09.070Z,17.20
2018-10-17T16:30:09.129Z,16.90
2018-10-17T16:31:09.171Z,16.80
2018-10-17T16:32:09.149Z,16.80
2018-10-17T16:33:09.049Z,17.30
2018-10-17T16:34:09.039Z,14.80
2018-10-17T16:35:09.016Z,16.00
2018-10-17T16:36:09.375Z,18.30
2018-10-17T16:37:09.002Z,15.80
2018-10-17T16:38:09.010Z,17.90
2018-10-17T16:39:09.058Z,18.60
2018-10-17T16:40:09.066Z,16.20
2018-10-17T16:41:09.985Z,14.40
2018-10-17T16:42:09.184Z,13.90
2018-10-17T16:43:15.886Z,14.80
2018-10-17T16:44:09.102Z,16.60
2018-10-17T16:45:20.123Z,17.40
2018-10-17T16:46:20.935Z,18.00
2018-10-17T16:47:09.712Z,16.60
2018-10-17T16:48:22.088Z,17.70
2018-10-17T16:49:09.650Z,18.10
2018-10-17T16:50:10.180Z,17.30
2018-10-17T16:51:09.168Z,16.80
2018-10-17T16:52:08.892Z,17.40
2018-10-17T16:53:09.871Z,16.90
2018-10-17T16:54:08.913Z,17.50
2018-10-17T16:55:08.904Z,19.20
2018-10-17T16:56:08.806Z,19.70
2018-10-17T16:58:23.158Z,19.70
2018-10-17T16:59:24.139Z,23.30
2018-10-17T17:01:42.056Z,15.40
2018-10-17T17:02:42.107Z,19.40
2018-10-17T17:05:08.015Z,18.90
2018-10-17T17:07:44.294Z,16.10
2018-10-17T17:08:44.142Z,19.40
2018-10-17T17:09:44.326Z,19.40
2018-10-17T17:12:03.908Z,19.50
2018-10-17T17:14:41.899Z,24.50
2018-10-17T17:15:19.340Z,24.60
2018-10-17T17:16:18.980Z,23.10
2018-10-17T17:17:19.913Z,23.70
2018-10-17T17:18:19.884Z,23.50
2018-10-17T17:19:18.902Z,22.80
2018-10-17T17:21:49.090Z,22.20
2018-10-17T17:22:48.734Z,23.10
2018-10-17T17:23:48.633Z,20.50
2018-10-17T17:24:48.416Z,22.20
2018-10-17T17:25:48.908Z,23.00
2018-10-17T17:26:48.286Z,22.90
2018-10-17T17:27:48.259Z,20.50
2018-10-17T17:29:09.245Z,23.80
2018-10-17T17:29:48.270Z,21.10
2018-10-17T17:30:59.227Z,23.30
2018-10-17T17:31:48.608Z,25.80
2018-10-17T17:32:48.773Z,23.10
2018-10-17T17:35:14.077Z,21.30
2018-10-17T17:36:14.316Z,25.60
2018-10-17T17:37:14.159Z,25.10
2018-10-17T17:38:13.602Z,22.40
2018-10-17T17:39:13.443Z,21.70
2018-10-17T17:40:13.974Z,23.90
2018-10-17T17:41:13.335Z,19.30
2018-10-17T17:42:13.362Z,20.00
2018-10-17T17:43:48.609Z,21.10
2018-10-17T17:44:13.356Z,23.10
2018-10-17T17:45:13.322Z,24.10
2018-10-17T17:46:37.190Z,23.40
2018-10-17T17:47:14.172Z,24.50
2018-10-17T17:48:39.186Z,21.30
2018-10-17T17:50:35.151Z,20.00
2018-10-17T17:51:34.487Z,23.10
2018-10-17T17:52:35.285Z,22.10
2018-10-17T17:53:34.209Z,18.60
2018-10-17T17:54:34.211Z,22.40
2018-10-17T17:55:34.080Z,29.70
2018-10-17T17:56:34.202Z,18.90
2018-10-17T17:57:34.103Z,24.10
2018-10-17T17:58:34.163Z,31.40
2018-10-17T17:59:34.063Z,22.70
2018-10-17T18:00:34.060Z,23.60
2018-10-17T18:01:50.705Z,23.10
2018-10-17T18:02:43.683Z,25.20
2018-10-17T18:03:34.734Z,21.20
2018-10-17T18:04:34.115Z,21.50
2018-10-17T18:05:35.956Z,23.00
2018-10-17T18:06:35.059Z,22.00
2018-10-17T18:07:34.967Z,25.00
2018-10-17T18:08:34.968Z,25.10
2018-10-17T18:09:33.924Z,21.60
2018-10-17T18:10:33.969Z,19.80
2018-10-17T18:11:33.943Z,22.50
2018-10-17T18:12:34.030Z,24.00
2018-10-17T18:15:34.578Z,18.10
2018-10-17T18:16:05.453Z,22.50
2018-10-17T18:17:30.509Z,22.60
2018-10-17T18:19:32.988Z,21.50
2018-10-17T18:20:32.452Z,23.10
2018-10-17T18:21:33.079Z,26.10
2018-10-17T18:22:32.376Z,26.40
2018-10-17T18:23:43.235Z,21.30
2018-10-17T18:24:32.658Z,23.00
2018-10-17T18:25:32.682Z,21.20
2018-10-17T18:26:32.666Z,21.60
2018-10-17T18:27:44.306Z,22.40
2018-10-17T18:30:06.737Z,27.80
2018-10-17T18:33:27.938Z,25.00
2018-10-17T18:34:40.963Z,28.10
2018-10-17T18:35:28.907Z,26.60
2018-10-17T18:36:42.565Z,20.50
2018-10-17T18:38:54.749Z,20.40
2018-10-17T18:42:32.370Z,19.60
2018-10-17T18:54:01.999Z,23.30
2018-10-17T18:55:04.215Z,21.80
2018-10-17T19:03:56.845Z,24.10
2018-10-17T19:07:45.561Z,17.60
2018-10-17T19:11:56.624Z,20.20
2018-10-17T19:19:06.440Z,23.30
2018-10-17T19:22:11.062Z,18.70
2018-10-17T19:25:19.313Z,21.30
2018-10-17T19:26:18.171Z,22.90
2018-10-17T19:27:25.318Z,21.70
2018-10-17T19:34:10.518Z,16.60
2018-10-17T19:35:07.885Z,28.40
2018-10-17T19:35:57.473Z,25.60
2018-10-17T19:37:14.704Z,26.40
2018-10-17T19:52:35.482Z,27.70
2018-10-17T19:57:39.608Z,21.70
2018-10-17T20:00:57.991Z,28.70
2018-10-17T20:03:21.787Z,27.70
2018-10-17T20:04:22.551Z,29.70
2018-10-17T20:07:08.495Z,22.90
2018-10-17T20:08:09.515Z,29.20
2018-10-17T20:16:27.635Z,22.10
2018-10-17T20:18:54.168Z,25.40
2018-10-17T20:19:54.756Z,28.50
2018-10-17T20:20:54.966Z,26.80
2018-10-17T20:23:45.449Z,25.80
2018-10-17T20:24:39.312Z,22.60
2018-10-17T20:25:48.343Z,23.60
2018-10-17T20:27:04.433Z,28.10
2018-10-17T20:27:40.308Z,27.30
2018-10-17T20:32:01.878Z,33.20
2018-10-17T20:32:18.670Z,25.60
2018-10-17T20:33:18.704Z,29.10
2018-10-17T20:37:50.687Z,30.20
2018-10-17T20:38:52.502Z,29.10
2018-10-17T20:39:50.518Z,26.90
2018-10-17T20:42:19.519Z,23.60
2018-10-17T20:47:30.821Z,35.10
2018-10-17T20:49:57.769Z,26.40
2018-10-17T20:50:58.481Z,28.80
2018-10-17T20:51:57.111Z,30.20
2018-10-17T20:53:18.762Z,27.90
2018-10-17T20:53:56.444Z,29.20
2018-10-17T20:54:56.710Z,28.90
2018-10-17T20:55:56.405Z,30.50
2018-10-17T20:56:56.228Z,25.00
2018-10-17T20:58:07.890Z,29.10
2018-10-17T20:59:07.429Z,29.80
2018-10-17T21:00:04.940Z,29.70
2018-10-17T21:00:56.374Z,27.60
2018-10-17T21:02:07.049Z,26.80
2018-10-17T21:02:56.353Z,29.80
2018-10-17T21:03:56.401Z,30.10
2018-10-17T21:05:05.849Z,26.80
2018-10-17T21:05:56.303Z,26.50
2018-10-17T21:06:56.218Z,24.90
2018-10-17T21:07:56.223Z,25.60
2018-10-17T21:09:06.259Z,24.40
2018-10-17T21:11:07.581Z,28.10
2018-10-17T21:12:07.894Z,30.20
2018-10-17T21:13:17.818Z,31.40
2018-10-17T21:14:17.165Z,29.20
2018-10-17T21:15:07.354Z,25.60
2018-10-17T21:16:07.853Z,30.10
2018-10-17T21:17:20.288Z,30.20
2018-10-17T21:18:07.576Z,30.30
2018-10-17T21:19:18.334Z,23.00
2018-10-17T21:20:18.064Z,27.00
2018-10-17T21:21:07.703Z,27.30
2018-10-17T21:22:07.724Z,27.80
2018-10-17T21:23:07.777Z,29.10
2018-10-17T21:24:08.230Z,29.70
2018-10-17T21:25:07.190Z,29.30
2018-10-17T21:26:18.052Z,26.80
2018-10-17T21:27:07.437Z,29.40
2018-10-17T21:28:08.179Z,27.00
2018-10-17T21:29:07.189Z,28.90
2018-10-17T21:30:07.225Z,26.50
2018-10-17T21:32:20.952Z,24.30
2018-10-17T21:33:30.697Z,22.00
2018-10-17T21:34:22.107Z,31.30
2018-10-17T21:35:21.939Z,30.50
2018-10-17T21:36:21.129Z,26.40
2018-10-17T21:37:20.590Z,29.40
2018-10-17T21:38:20.641Z,25.80
2018-10-17T21:39:20.643Z,32.00
2018-10-17T21:40:39.805Z,30.20
2018-10-17T21:41:28.308Z,32.90
2018-10-17T21:42:20.496Z,29.10
2018-10-17T21:44:41.265Z,25.10
2018-10-17T21:45:41.020Z,26.70
2018-10-17T21:46:40.931Z,32.70
2018-10-17T21:48:54.396Z,20.50
2018-10-17T21:49:54.403Z,22.70
2018-10-17T21:50:53.888Z,23.30
2018-10-17T21:51:54.672Z,27.00
2018-10-17T21:52:53.762Z,24.30
2018-10-17T21:53:53.721Z,28.40
2018-10-17T21:54:53.745Z,28.90
2018-10-17T21:55:53.800Z,33.30
2018-10-17T21:56:54.673Z,27.30
2018-10-17T21:57:54.703Z,31.70
2018-10-17T21:58:53.668Z,31.50
2018-10-17T21:59:53.667Z,30.70
2018-10-17T22:00:53.686Z,29.40
2018-10-17T22:01:53.689Z,25.00
2018-10-17T22:02:53.622Z,23.40
2018-10-17T22:03:53.668Z,28.60
2018-10-17T22:04:54.177Z,26.20
2018-10-17T22:05:54.683Z,26.00
2018-10-17T22:06:54.584Z,29.70
2018-10-17T22:07:53.624Z,28.10
2018-10-17T22:08:53.634Z,28.70
2018-10-17T22:09:54.628Z,30.70
2018-10-17T22:10:53.606Z,27.30
2018-10-17T22:12:04.787Z,31.40
2018-10-17T22:13:04.368Z,29.70
2018-10-17T22:13:53.775Z,24.70
2018-10-17T22:15:14.749Z,25.10
2018-10-17T22:17:05.908Z,24.40
2018-10-17T22:18:05.956Z,26.30
2018-10-17T22:19:05.740Z,30.80
2018-10-17T22:20:05.855Z,32.40
2018-10-17T22:21:05.641Z,30.30
2018-10-17T22:22:05.636Z,32.00
2018-10-17T22:23:16.207Z,26.10
2018-10-17T22:24:05.697Z,26.70
2018-10-17T22:25:05.764Z,25.10
2018-10-17T22:26:05.699Z,29.30
2018-10-17T22:27:05.855Z,25.90
2018-10-17T22:28:05.524Z,24.00
2018-10-17T22:29:26.520Z,24.20
2018-10-17T22:30:06.599Z,25.20
2018-10-17T22:31:17.833Z,28.80
2018-10-17T22:32:05.942Z,29.20
2018-10-17T22:33:05.625Z,27.40
2018-10-17T22:34:05.516Z,30.40
2018-10-17T22:35:05.890Z,25.40
2018-10-17T22:36:05.473Z,29.30
2018-10-17T22:37:06.374Z,28.70
2018-10-17T22:38:05.488Z,26.00
2018-10-17T22:39:15.033Z,24.90
2018-10-17T22:40:05.486Z,33.90
2018-10-17T22:41:05.552Z,26.10
2018-10-17T22:42:05.440Z,30.60
2018-10-17T22:43:05.676Z,29.40
2018-10-17T22:45:19.019Z,28.40
2018-10-17T22:46:18.893Z,31.10
2018-10-17T22:47:18.896Z,31.00
2018-10-17T22:48:31.021Z,29.60
2018-10-17T22:49:19.229Z,27.60
2018-10-17T22:50:19.079Z,30.40
2018-10-17T22:51:18.883Z,30.50
2018-10-17T22:52:19.178Z,28.70
2018-10-17T22:53:18.791Z,28.20
2018-10-17T22:55:39.110Z,25.10
2018-10-17T22:56:39.223Z,26.80
2018-10-17T22:57:39.095Z,32.10
2018-10-17T22:58:39.203Z,31.40
2018-10-17T23:00:52.658Z,27.20
2018-10-17T23:03:05.643Z,22.60
2018-10-17T23:04:05.574Z,25.10
2018-10-17T23:05:05.459Z,26.00
2018-10-17T23:06:05.870Z,32.30
2018-10-17T23:07:05.282Z,31.20
2018-10-17T23:08:05.325Z,28.40
2018-10-17T23:09:14.935Z,30.40
2018-10-17T23:10:05.483Z,29.90
2018-10-17T23:11:05.388Z,29.70
2018-10-17T23:12:05.515Z,31.20
2018-10-17T23:13:05.210Z,28.40
2018-10-17T23:14:26.261Z,27.30
2018-10-17T23:15:05.232Z,30.10
2018-10-17T23:16:15.774Z,30.80
2018-10-17T23:17:06.311Z,32.40
2018-10-17T23:18:15.730Z,29.10
2018-10-17T23:19:05.315Z,32.00
2018-10-17T23:20:05.391Z,29.60
2018-10-17T23:21:05.365Z,28.10
2018-10-17T23:22:05.321Z,31.60
2018-10-17T23:23:05.133Z,28.00
2018-10-17T23:24:05.123Z,28.70
2018-10-17T23:25:05.032Z,25.20
2018-10-17T23:26:06.011Z,25.50
2018-10-17T23:27:05.033Z,29.10
2018-10-17T23:28:15.665Z,24.90
2018-10-17T23:30:22.933Z,26.10
2018-10-17T23:31:32.060Z,27.60
2018-10-17T23:32:23.635Z,30.20
2018-10-17T23:33:23.517Z,24.80
2018-10-17T23:34:22.566Z,23.90
2018-10-17T23:35:23.506Z,24.90
2018-10-17T23:36:22.483Z,28.60
2018-10-17T23:37:23.468Z,29.40
2018-10-17T23:38:22.527Z,32.70
2018-10-17T23:39:22.480Z,30.30
2018-10-17T23:40:22.489Z,29.50
2018-10-17T23:41:22.455Z,29.20
2018-10-17T23:42:32.504Z,28.80
2018-10-17T23:43:22.785Z,28.80
2018-10-17T23:44:48.374Z,30.70
2018-10-17T23:45:22.664Z,31.60
2018-10-17T23:46:22.465Z,29.10
2018-10-17T23:47:33.004Z,31.40
2018-10-17T23:48:23.493Z,28.40
2018-10-17T23:49:23.450Z,28.10
2018-10-17T23:50:22.375Z,28.60
2018-10-17T23:51:22.466Z,29.50
2018-10-17T23:52:24.027Z,28.50
2018-10-17T23:53:24.235Z,31.60
2018-10-17T23:54:23.578Z,31.70
2018-10-17T23:55:22.305Z,30.20
2018-10-17T23:56:22.304Z,29.50
2018-10-17T23:57:22.429Z,29.00
2018-10-17T23:58:22.523Z,28.20
2018-10-17T23:59:27.686Z,30.90
